sensor_id;sensor_type;location;lat;lon;timestamp;temperature;humidity
42615;DHT22;28754;47.700;7.924;2024-02-04T00:02:44;3.90;99.90
42615;DHT22;28754;47.700;7.924;2024-02-04T00:05:30;3.90;99.90
42615;DHT22;28754;47.700;7.924;2024-02-04T00:08:17;4.00;99.90
42615;DHT22;28754;47.700;7.924;2024-02-04T00:11:04;4.00;99.90
42615;DHT22;28754;47.700;7.924;2024-02-04T00:13:54;3.80;99.90
42615;DHT22;28754;47.700;7.924;2024-02-04T00:16:41;3.70;99.90
42615;DHT22;28754;47.700;7.924;2024-02-04T00:19:28;3.70;99.90
42615;DHT22;28754;47.700;7.924;2024-02-04T00:22:14;3.80;99.90
42615;DHT22;28754;47.700;7.924;2024-02-04T00:25:05;3.90;99.90
42615;DHT22;28754;47.700;7.924;2024-02-04T00:27:51;3.80;99.90
42615;DHT22;28754;47.700;7.924;2024-02-04T00:30:38;3.70;99.90
42615;DHT22;28754;47.700;7.924;2024-02-04T00:33:25;3.90;99.90
42615;DHT22;28754;47.700;7.924;2024-02-04T00:36:12;3.90;99.90
42615;DHT22;28754;47.700;7.924;2024-02-04T00:38:58;3.90;99.90
42615;DHT22;28754;47.700;7.924;2024-02-04T00:41:45;4.10;99.90
42615;DHT22;28754;47.700;7.924;2024-02-04T00:44:32;4.10;99.90
42615;DHT22;28754;47.700;7.924;2024-02-04T00:47:18;4.10;99.90
42615;DHT22;28754;47.700;7.924;2024-02-04T00:50:06;4.10;99.90
42615;DHT22;28754;47.700;7.924;2024-02-04T00:52:53;4.20;99.90
42615;DHT22;28754;47.700;7.924;2024-02-04T00:55:40;4.30;99.90
42615;DHT22;28754;47.700;7.924;2024-02-04T00:58:26;4.60;99.90
42615;DHT22;28754;47.700;7.924;2024-02-04T01:01:13;4.60;99.90
42615;DHT22;28754;47.700;7.924;2024-02-04T01:04:00;4.50;99.90
42615;DHT22;28754;47.700;7.924;2024-02-04T01:06:46;4.40;99.90
42615;DHT22;28754;47.700;7.924;2024-02-04T01:09:33;4.30;99.90
42615;DHT22;28754;47.700;7.924;2024-02-04T01:12:20;4.10;99.90
42615;DHT22;28754;47.700;7.924;2024-02-04T01:15:07;4.30;99.90
42615;DHT22;28754;47.700;7.924;2024-02-04T01:17:53;4.50;99.90
42615;DHT22;28754;47.700;7.924;2024-02-04T01:20:40;4.60;99.90
42615;DHT22;28754;47.700;7.924;2024-02-04T01:23:27;4.70;99.90
42615;DHT22;28754;47.700;7.924;2024-02-04T01:26:14;4.70;99.90
42615;DHT22;28754;47.700;7.924;2024-02-04T01:29:01;4.80;99.90
42615;DHT22;28754;47.700;7.924;2024-02-04T01:31:48;4.80;99.90
42615;DHT22;28754;47.700;7.924;2024-02-04T01:34:34;4.60;99.90
42615;DHT22;28754;47.700;7.924;2024-02-04T01:37:21;4.70;99.90
42615;DHT22;28754;47.700;7.924;2024-02-04T01:40:08;4.80;99.90
42615;DHT22;28754;47.700;7.924;2024-02-04T01:42:56;4.70;99.90
42615;DHT22;28754;47.700;7.924;2024-02-04T01:45:42;4.70;99.90
42615;DHT22;28754;47.700;7.924;2024-02-04T01:48:29;4.80;99.90
42615;DHT22;28754;47.700;7.924;2024-02-04T01:51:17;4.80;99.90
42615;DHT22;28754;47.700;7.924;2024-02-04T01:54:07;4.90;99.90
42615;DHT22;28754;47.700;7.924;2024-02-04T01:56:55;4.60;99.90
42615;DHT22;28754;47.700;7.924;2024-02-04T01:59:42;4.60;99.90
42615;DHT22;28754;47.700;7.924;2024-02-04T02:02:31;4.60;99.90
42615;DHT22;28754;47.700;7.924;2024-02-04T02:05:20;4.50;99.90
42615;DHT22;28754;47.700;7.924;2024-02-04T02:08:07;4.40;99.90
42615;DHT22;28754;47.700;7.924;2024-02-04T02:11:02;4.30;99.90
42615;DHT22;28754;47.700;7.924;2024-02-04T02:14:26;4.10;99.90
42615;DHT22;28754;47.700;7.924;2024-02-04T02:17:21;3.80;99.90
42615;DHT22;28754;47.700;7.924;2024-02-04T02:20:27;3.90;99.90
42615;DHT22;28754;47.700;7.924;2024-02-04T02:23:30;4.30;99.90
42615;DHT22;28754;47.700;7.924;2024-02-04T02:26:21;4.50;99.90
42615;DHT22;28754;47.700;7.924;2024-02-04T02:29:15;4.50;99.90
42615;DHT22;28754;47.700;7.924;2024-02-04T02:32:02;4.70;99.90
42615;DHT22;28754;47.700;7.924;2024-02-04T02:34:50;4.70;99.90
42615;DHT22;28754;47.700;7.924;2024-02-04T02:37:43;4.70;99.90
42615;DHT22;28754;47.700;7.924;2024-02-04T02:40:48;4.40;99.90
42615;DHT22;28754;47.700;7.924;2024-02-04T02:43:39;4.30;99.90
42615;DHT22;28754;47.700;7.924;2024-02-04T02:46:28;4.40;99.90
42615;DHT22;28754;47.700;7.924;2024-02-04T02:49:15;4.60;99.90
42615;DHT22;28754;47.700;7.924;2024-02-04T02:52:02;4.40;99.90
42615;DHT22;28754;47.700;7.924;2024-02-04T02:54:48;4.20;99.90
42615;DHT22;28754;47.700;7.924;2024-02-04T02:57:35;4.20;99.90
42615;DHT22;28754;47.700;7.924;2024-02-04T03:00:22;4.30;99.90
42615;DHT22;28754;47.700;7.924;2024-02-04T03:03:08;4.20;99.90
42615;DHT22;28754;47.700;7.924;2024-02-04T03:05:55;4.20;99.90
42615;DHT22;28754;47.700;7.924;2024-02-04T03:08:42;4.30;99.90
42615;DHT22;28754;47.700;7.924;2024-02-04T03:11:29;4.10;99.90
42615;DHT22;28754;47.700;7.924;2024-02-04T03:14:16;4.30;99.90
42615;DHT22;28754;47.700;7.924;2024-02-04T03:17:03;4.40;99.90
42615;DHT22;28754;47.700;7.924;2024-02-04T03:19:50;4.30;99.90
42615;DHT22;28754;47.700;7.924;2024-02-04T03:22:43;4.40;99.90
42615;DHT22;28754;47.700;7.924;2024-02-04T03:25:32;4.50;99.90
42615;DHT22;28754;47.700;7.924;2024-02-04T03:28:19;4.50;99.90
42615;DHT22;28754;47.700;7.924;2024-02-04T03:31:06;4.40;99.90
42615;DHT22;28754;47.700;7.924;2024-02-04T03:33:52;4.20;99.90
42615;DHT22;28754;47.700;7.924;2024-02-04T03:36:39;4.30;99.90
42615;DHT22;28754;47.700;7.924;2024-02-04T03:39:26;4.20;99.90
42615;DHT22;28754;47.700;7.924;2024-02-04T03:42:13;4.20;99.90
42615;DHT22;28754;47.700;7.924;2024-02-04T03:45:00;4.10;99.90
42615;DHT22;28754;47.700;7.924;2024-02-04T03:47:49;4.20;99.90
42615;DHT22;28754;47.700;7.924;2024-02-04T03:50:36;4.10;99.90
42615;DHT22;28754;47.700;7.924;2024-02-04T03:53:23;4.20;99.90
42615;DHT22;28754;47.700;7.924;2024-02-04T03:56:09;4.10;99.90
42615;DHT22;28754;47.700;7.924;2024-02-04T03:58:56;4.00;99.90
42615;DHT22;28754;47.700;7.924;2024-02-04T04:01:50;4.00;99.90
42615;DHT22;28754;47.700;7.924;2024-02-04T04:04:39;4.00;99.90
42615;DHT22;28754;47.700;7.924;2024-02-04T04:07:28;3.90;99.90
42615;DHT22;28754;47.700;7.924;2024-02-04T04:10:14;3.90;99.90
42615;DHT22;28754;47.700;7.924;2024-02-04T04:13:01;3.80;99.90
42615;DHT22;28754;47.700;7.924;2024-02-04T04:15:48;3.90;99.90
42615;DHT22;28754;47.700;7.924;2024-02-04T04:18:34;3.80;99.90
42615;DHT22;28754;47.700;7.924;2024-02-04T04:21:21;3.80;99.90
42615;DHT22;28754;47.700;7.924;2024-02-04T04:24:08;3.80;99.90
42615;DHT22;28754;47.700;7.924;2024-02-04T04:26:54;3.90;99.90
42615;DHT22;28754;47.700;7.924;2024-02-04T04:29:41;4.00;99.90
42615;DHT22;28754;47.700;7.924;2024-02-04T04:32:28;3.90;99.90
42615;DHT22;28754;47.700;7.924;2024-02-04T04:35:14;3.80;99.90
42615;DHT22;28754;47.700;7.924;2024-02-04T04:38:02;4.00;99.90
42615;DHT22;28754;47.700;7.924;2024-02-04T04:40:48;4.10;99.90
42615;DHT22;28754;47.700;7.924;2024-02-04T04:43:38;4.10;99.90
42615;DHT22;28754;47.700;7.924;2024-02-04T04:46:25;4.30;99.90
42615;DHT22;28754;47.700;7.924;2024-02-04T04:49:11;4.30;99.90
42615;DHT22;28754;47.700;7.924;2024-02-04T04:51:58;4.30;99.90
42615;DHT22;28754;47.700;7.924;2024-02-04T04:54:45;4.20;99.90
42615;DHT22;28754;47.700;7.924;2024-02-04T04:57:31;4.20;99.90
42615;DHT22;28754;47.700;7.924;2024-02-04T05:00:18;4.20;99.90
42615;DHT22;28754;47.700;7.924;2024-02-04T05:03:06;4.30;99.90
42615;DHT22;28754;47.700;7.924;2024-02-04T05:05:52;4.30;99.90
42615;DHT22;28754;47.700;7.924;2024-02-04T05:08:39;4.30;99.90
42615;DHT22;28754;47.700;7.924;2024-02-04T05:11:25;4.50;99.90
42615;DHT22;28754;47.700;7.924;2024-02-04T05:14:12;4.50;99.90
42615;DHT22;28754;47.700;7.924;2024-02-04T05:16:59;4.40;99.90
42615;DHT22;28754;47.700;7.924;2024-02-04T05:19:46;4.30;99.90
42615;DHT22;28754;47.700;7.924;2024-02-04T05:22:33;4.10;99.90
42615;DHT22;28754;47.700;7.924;2024-02-04T05:25:19;4.30;99.90
42615;DHT22;28754;47.700;7.924;2024-02-04T05:28:06;4.20;99.90
42615;DHT22;28754;47.700;7.924;2024-02-04T05:30:53;4.10;99.90
42615;DHT22;28754;47.700;7.924;2024-02-04T05:33:40;4.00;99.90
42615;DHT22;28754;47.700;7.924;2024-02-04T05:36:26;4.10;99.90
42615;DHT22;28754;47.700;7.924;2024-02-04T05:39:14;3.80;99.90
42615;DHT22;28754;47.700;7.924;2024-02-04T05:42:02;3.70;99.90
42615;DHT22;28754;47.700;7.924;2024-02-04T05:44:49;3.70;99.90
42615;DHT22;28754;47.700;7.924;2024-02-04T05:47:35;3.70;99.90
42615;DHT22;28754;47.700;7.924;2024-02-04T05:50:23;3.70;99.90
42615;DHT22;28754;47.700;7.924;2024-02-04T05:53:09;3.70;99.90
42615;DHT22;28754;47.700;7.924;2024-02-04T05:55:56;3.70;99.90
42615;DHT22;28754;47.700;7.924;2024-02-04T05:58:42;3.80;99.90
42615;DHT22;28754;47.700;7.924;2024-02-04T06:01:29;3.90;99.90
42615;DHT22;28754;47.700;7.924;2024-02-04T06:04:16;3.90;99.90
42615;DHT22;28754;47.700;7.924;2024-02-04T06:07:02;3.90;99.90
42615;DHT22;28754;47.700;7.924;2024-02-04T06:09:49;3.80;99.90
42615;DHT22;28754;47.700;7.924;2024-02-04T06:12:36;3.80;99.90
42615;DHT22;28754;47.700;7.924;2024-02-04T06:15:23;3.70;99.90
42615;DHT22;28754;47.700;7.924;2024-02-04T06:18:11;3.80;99.90
42615;DHT22;28754;47.700;7.924;2024-02-04T06:20:57;3.70;99.90
42615;DHT22;28754;47.700;7.924;2024-02-04T06:23:44;3.70;99.90
42615;DHT22;28754;47.700;7.924;2024-02-04T06:26:31;3.60;99.90
42615;DHT22;28754;47.700;7.924;2024-02-04T06:29:17;3.70;99.90
42615;DHT22;28754;47.700;7.924;2024-02-04T06:32:04;3.60;99.90
42615;DHT22;28754;47.700;7.924;2024-02-04T06:34:51;3.60;99.90
42615;DHT22;28754;47.700;7.924;2024-02-04T06:37:41;3.60;99.90
42615;DHT22;28754;47.700;7.924;2024-02-04T06:40:29;3.70;99.90
42615;DHT22;28754;47.700;7.924;2024-02-04T06:43:15;3.70;99.90
42615;DHT22;28754;47.700;7.924;2024-02-04T06:46:02;3.70;99.90
42615;DHT22;28754;47.700;7.924;2024-02-04T06:48:49;3.90;99.90
42615;DHT22;28754;47.700;7.924;2024-02-04T06:51:35;4.10;99.90
42615;DHT22;28754;47.700;7.924;2024-02-04T06:54:23;4.00;99.90
42615;DHT22;28754;47.700;7.924;2024-02-04T06:57:10;4.00;99.90
42615;DHT22;28754;47.700;7.924;2024-02-04T06:59:57;3.90;99.90
42615;DHT22;28754;47.700;7.924;2024-02-04T07:02:44;3.90;99.90
42615;DHT22;28754;47.700;7.924;2024-02-04T07:05:31;4.00;99.90
42615;DHT22;28754;47.700;7.924;2024-02-04T07:08:19;4.00;99.90
42615;DHT22;28754;47.700;7.924;2024-02-04T07:11:06;3.80;99.90
42615;DHT22;28754;47.700;7.924;2024-02-04T07:13:53;3.80;99.90
42615;DHT22;28754;47.700;7.924;2024-02-04T07:16:45;3.90;99.90
42615;DHT22;28754;47.700;7.924;2024-02-04T07:19:31;4.00;99.90
42615;DHT22;28754;47.700;7.924;2024-02-04T07:22:18;4.00;99.90
42615;DHT22;28754;47.700;7.924;2024-02-04T07:25:05;3.90;99.90
42615;DHT22;28754;47.700;7.924;2024-02-04T07:27:53;3.80;99.90
42615;DHT22;28754;47.700;7.924;2024-02-04T07:30:40;3.80;99.90
42615;DHT22;28754;47.700;7.924;2024-02-04T07:33:26;3.70;99.90
42615;DHT22;28754;47.700;7.924;2024-02-04T07:36:13;3.80;99.90
42615;DHT22;28754;47.700;7.924;2024-02-04T07:39:00;3.90;99.90
42615;DHT22;28754;47.700;7.924;2024-02-04T07:41:50;4.00;99.90
42615;DHT22;28754;47.700;7.924;2024-02-04T07:44:37;3.90;99.90
42615;DHT22;28754;47.700;7.924;2024-02-04T07:47:24;3.90;99.90
42615;DHT22;28754;47.700;7.924;2024-02-04T07:50:11;4.10;99.90
42615;DHT22;28754;47.700;7.924;2024-02-04T07:52:57;4.10;99.90
42615;DHT22;28754;47.700;7.924;2024-02-04T07:55:44;4.00;99.90
42615;DHT22;28754;47.700;7.924;2024-02-04T07:58:31;4.10;99.90
42615;DHT22;28754;47.700;7.924;2024-02-04T08:01:18;4.10;99.90
42615;DHT22;28754;47.700;7.924;2024-02-04T08:04:05;4.00;99.90
42615;DHT22;28754;47.700;7.924;2024-02-04T08:06:54;4.00;99.90
42615;DHT22;28754;47.700;7.924;2024-02-04T08:09:41;3.90;99.90
42615;DHT22;28754;47.700;7.924;2024-02-04T08:12:28;3.80;99.90
42615;DHT22;28754;47.700;7.924;2024-02-04T08:15:15;3.90;99.90
42615;DHT22;28754;47.700;7.924;2024-02-04T08:18:01;4.10;99.90
42615;DHT22;28754;47.700;7.924;2024-02-04T08:20:48;4.30;99.90
42615;DHT22;28754;47.700;7.924;2024-02-04T08:23:34;4.20;99.90
42615;DHT22;28754;47.700;7.924;2024-02-04T08:26:21;4.20;99.90
42615;DHT22;28754;47.700;7.924;2024-02-04T08:29:08;4.10;99.90
42615;DHT22;28754;47.700;7.924;2024-02-04T08:31:55;4.40;99.90
42615;DHT22;28754;47.700;7.924;2024-02-04T08:34:41;4.30;99.90
42615;DHT22;28754;47.700;7.924;2024-02-04T08:37:28;4.30;99.90
42615;DHT22;28754;47.700;7.924;2024-02-04T08:40:15;4.10;99.90
42615;DHT22;28754;47.700;7.924;2024-02-04T08:43:02;4.00;99.90
42615;DHT22;28754;47.700;7.924;2024-02-04T08:45:48;4.00;99.90
42615;DHT22;28754;47.700;7.924;2024-02-04T08:48:35;4.10;99.90
42615;DHT22;28754;47.700;7.924;2024-02-04T08:51:23;4.10;99.90
42615;DHT22;28754;47.700;7.924;2024-02-04T08:54:09;4.20;99.90
42615;DHT22;28754;47.700;7.924;2024-02-04T08:56:58;4.30;99.90
42615;DHT22;28754;47.700;7.924;2024-02-04T08:59:44;4.20;99.90
42615;DHT22;28754;47.700;7.924;2024-02-04T09:02:34;4.20;99.90
42615;DHT22;28754;47.700;7.924;2024-02-04T09:05:21;4.30;99.90
42615;DHT22;28754;47.700;7.924;2024-02-04T09:08:08;4.20;99.90
42615;DHT22;28754;47.700;7.924;2024-02-04T09:10:57;4.40;99.90
42615;DHT22;28754;47.700;7.924;2024-02-04T09:13:46;4.40;99.90
42615;DHT22;28754;47.700;7.924;2024-02-04T09:16:33;4.40;99.90
42615;DHT22;28754;47.700;7.924;2024-02-04T09:19:20;4.50;99.90
42615;DHT22;28754;47.700;7.924;2024-02-04T09:22:07;4.70;99.90
42615;DHT22;28754;47.700;7.924;2024-02-04T09:24:54;4.90;99.90
42615;DHT22;28754;47.700;7.924;2024-02-04T09:27:41;4.70;99.90
42615;DHT22;28754;47.700;7.924;2024-02-04T09:30:27;4.70;99.90
42615;DHT22;28754;47.700;7.924;2024-02-04T09:33:14;4.60;99.90
42615;DHT22;28754;47.700;7.924;2024-02-04T09:36:01;4.60;99.90
42615;DHT22;28754;47.700;7.924;2024-02-04T09:38:47;4.50;99.90
42615;DHT22;28754;47.700;7.924;2024-02-04T09:41:34;4.30;99.90
42615;DHT22;28754;47.700;7.924;2024-02-04T09:44:23;4.40;99.90
42615;DHT22;28754;47.700;7.924;2024-02-04T09:47:13;4.30;99.90
42615;DHT22;28754;47.700;7.924;2024-02-04T09:50:00;4.60;99.90
42615;DHT22;28754;47.700;7.924;2024-02-04T09:52:50;5.00;99.90
42615;DHT22;28754;47.700;7.924;2024-02-04T09:55:39;5.00;99.90
42615;DHT22;28754;47.700;7.924;2024-02-04T09:58:27;5.00;99.90
42615;DHT22;28754;47.700;7.924;2024-02-04T10:01:14;5.20;99.90
42615;DHT22;28754;47.700;7.924;2024-02-04T10:04:02;5.00;99.90
42615;DHT22;28754;47.700;7.924;2024-02-04T10:06:49;5.10;99.90
42615;DHT22;28754;47.700;7.924;2024-02-04T10:09:36;4.90;99.90
42615;DHT22;28754;47.700;7.924;2024-02-04T10:12:22;5.00;99.90
42615;DHT22;28754;47.700;7.924;2024-02-04T10:15:10;5.00;99.90
42615;DHT22;28754;47.700;7.924;2024-02-04T10:17:57;5.10;99.90
42615;DHT22;28754;47.700;7.924;2024-02-04T10:20:44;5.30;99.90
42615;DHT22;28754;47.700;7.924;2024-02-04T10:23:30;5.40;99.90
42615;DHT22;28754;47.700;7.924;2024-02-04T10:26:18;5.50;99.90
42615;DHT22;28754;47.700;7.924;2024-02-04T10:29:07;5.30;99.90
42615;DHT22;28754;47.700;7.924;2024-02-04T10:31:57;5.30;99.90
42615;DHT22;28754;47.700;7.924;2024-02-04T10:34:44;5.40;99.90
42615;DHT22;28754;47.700;7.924;2024-02-04T10:37:31;5.20;99.90
42615;DHT22;28754;47.700;7.924;2024-02-04T10:40:18;5.30;99.90
42615;DHT22;28754;47.700;7.924;2024-02-04T10:43:06;5.30;99.90
42615;DHT22;28754;47.700;7.924;2024-02-04T10:45:56;5.20;99.90
42615;DHT22;28754;47.700;7.924;2024-02-04T10:48:59;5.20;99.90
42615;DHT22;28754;47.700;7.924;2024-02-04T10:51:50;5.20;99.90
42615;DHT22;28754;47.700;7.924;2024-02-04T10:54:38;5.40;99.90
42615;DHT22;28754;47.700;7.924;2024-02-04T10:57:28;5.70;99.90
42615;DHT22;28754;47.700;7.924;2024-02-04T11:00:17;5.40;99.90
42615;DHT22;28754;47.700;7.924;2024-02-04T11:03:07;5.50;99.90
42615;DHT22;28754;47.700;7.924;2024-02-04T11:05:55;5.90;99.90
42615;DHT22;28754;47.700;7.924;2024-02-04T11:08:42;6.00;99.90
42615;DHT22;28754;47.700;7.924;2024-02-04T11:11:30;6.40;99.90
42615;DHT22;28754;47.700;7.924;2024-02-04T11:14:20;7.20;99.90
42615;DHT22;28754;47.700;7.924;2024-02-04T11:27:34;8.60;99.90
42615;DHT22;28754;47.700;7.924;2024-02-04T11:30:21;8.10;99.90
42615;DHT22;28754;47.700;7.924;2024-02-04T11:33:11;7.60;99.90
42615;DHT22;28754;47.700;7.924;2024-02-04T11:36:02;7.20;99.90
42615;DHT22;28754;47.700;7.924;2024-02-04T11:38:54;7.10;99.90
42615;DHT22;28754;47.700;7.924;2024-02-04T11:41:48;9.50;99.90
42615;DHT22;28754;47.700;7.924;2024-02-04T11:44:35;11.90;99.90
42615;DHT22;28754;47.700;7.924;2024-02-04T11:47:28;13.80;99.90
42615;DHT22;28754;47.700;7.924;2024-02-04T11:50:28;11.30;99.90
42615;DHT22;28754;47.700;7.924;2024-02-04T11:53:18;11.30;99.90
42615;DHT22;28754;47.700;7.924;2024-02-04T11:56:05;12.80;99.90
42615;DHT22;28754;47.700;7.924;2024-02-04T11:58:53;15.10;99.90
42615;DHT22;28754;47.700;7.924;2024-02-04T12:01:40;15.80;99.90
42615;DHT22;28754;47.700;7.924;2024-02-04T12:04:27;15.90;99.90
42615;DHT22;28754;47.700;7.924;2024-02-04T12:07:16;14.70;99.90
42615;DHT22;28754;47.700;7.924;2024-02-04T12:10:04;16.60;99.90
42615;DHT22;28754;47.700;7.924;2024-02-04T12:12:54;17.40;99.90
42615;DHT22;28754;47.700;7.924;2024-02-04T12:15:42;16.20;99.90
42615;DHT22;28754;47.700;7.924;2024-02-04T12:18:33;15.10;99.90
42615;DHT22;28754;47.700;7.924;2024-02-04T12:21:20;16.10;99.90
42615;DHT22;28754;47.700;7.924;2024-02-04T12:24:07;16.60;99.90
42615;DHT22;28754;47.700;7.924;2024-02-04T12:26:54;17.80;99.90
42615;DHT22;28754;47.700;7.924;2024-02-04T12:29:41;15.80;99.90
42615;DHT22;28754;47.700;7.924;2024-02-04T12:32:28;14.20;99.90
42615;DHT22;28754;47.700;7.924;2024-02-04T12:35:23;13.30;99.90
42615;DHT22;28754;47.700;7.924;2024-02-04T12:38:10;11.70;99.90
42615;DHT22;28754;47.700;7.924;2024-02-04T12:41:06;10.70;99.90
42615;DHT22;28754;47.700;7.924;2024-02-04T12:43:57;10.50;99.90
42615;DHT22;28754;47.700;7.924;2024-02-04T12:46:49;13.20;99.90
42615;DHT22;28754;47.700;7.924;2024-02-04T12:49:36;13.10;99.90
42615;DHT22;28754;47.700;7.924;2024-02-04T12:52:23;15.40;99.90
42615;DHT22;28754;47.700;7.924;2024-02-04T12:55:20;13.20;99.90
42615;DHT22;28754;47.700;7.924;2024-02-04T12:58:10;14.60;99.90
42615;DHT22;28754;47.700;7.924;2024-02-04T13:01:01;15.10;99.90
42615;DHT22;28754;47.700;7.924;2024-02-04T13:03:50;15.50;99.90
42615;DHT22;28754;47.700;7.924;2024-02-04T13:06:38;14.90;99.90
42615;DHT22;28754;47.700;7.924;2024-02-04T13:09:25;15.30;99.90
42615;DHT22;28754;47.700;7.924;2024-02-04T13:12:14;15.70;99.90
42615;DHT22;28754;47.700;7.924;2024-02-04T13:15:03;16.10;99.90
42615;DHT22;28754;47.700;7.924;2024-02-04T13:17:50;14.80;99.90
42615;DHT22;28754;47.700;7.924;2024-02-04T13:20:38;14.00;99.90
42615;DHT22;28754;47.700;7.924;2024-02-04T13:23:26;13.20;99.90
42615;DHT22;28754;47.700;7.924;2024-02-04T13:26:13;12.50;99.90
42615;DHT22;28754;47.700;7.924;2024-02-04T13:29:00;11.60;99.90
42615;DHT22;28754;47.700;7.924;2024-02-04T13:31:49;11.30;99.90
42615;DHT22;28754;47.700;7.924;2024-02-04T13:34:36;11.40;99.90
42615;DHT22;28754;47.700;7.924;2024-02-04T13:37:23;11.30;99.90
42615;DHT22;28754;47.700;7.924;2024-02-04T13:40:10;11.20;99.90
42615;DHT22;28754;47.700;7.924;2024-02-04T13:42:57;11.70;99.90
42615;DHT22;28754;47.700;7.924;2024-02-04T13:45:46;10.90;99.90
42615;DHT22;28754;47.700;7.924;2024-02-04T13:48:33;9.80;99.90
42615;DHT22;28754;47.700;7.924;2024-02-04T13:51:19;9.90;99.90
42615;DHT22;28754;47.700;7.924;2024-02-04T13:54:06;9.60;99.90
42615;DHT22;28754;47.700;7.924;2024-02-04T13:56:53;9.30;99.90
42615;DHT22;28754;47.700;7.924;2024-02-04T13:59:39;9.20;99.90
42615;DHT22;28754;47.700;7.924;2024-02-04T14:02:26;9.20;99.90
42615;DHT22;28754;47.700;7.924;2024-02-04T14:05:15;9.40;99.90
42615;DHT22;28754;47.700;7.924;2024-02-04T14:08:03;9.40;99.90
42615;DHT22;28754;47.700;7.924;2024-02-04T14:10:50;9.60;99.90
42615;DHT22;28754;47.700;7.924;2024-02-04T14:13:44;10.60;99.90
42615;DHT22;28754;47.700;7.924;2024-02-04T14:16:53;9.80;99.90
42615;DHT22;28754;47.700;7.924;2024-02-04T14:19:40;9.50;99.90
42615;DHT22;28754;47.700;7.924;2024-02-04T14:22:29;9.10;99.90
42615;DHT22;28754;47.700;7.924;2024-02-04T14:25:30;8.80;99.90
42615;DHT22;28754;47.700;7.924;2024-02-04T14:28:27;9.10;99.90
42615;DHT22;28754;47.700;7.924;2024-02-04T14:31:14;8.90;99.90
42615;DHT22;28754;47.700;7.924;2024-02-04T14:34:01;8.90;99.90
42615;DHT22;28754;47.700;7.924;2024-02-04T14:36:48;8.90;99.90
42615;DHT22;28754;47.700;7.924;2024-02-04T14:39:34;9.00;99.90
42615;DHT22;28754;47.700;7.924;2024-02-04T14:42:21;8.70;99.90
42615;DHT22;28754;47.700;7.924;2024-02-04T14:45:08;8.80;99.90
42615;DHT22;28754;47.700;7.924;2024-02-04T14:47:57;8.90;99.90
42615;DHT22;28754;47.700;7.924;2024-02-04T14:50:44;8.90;99.90
42615;DHT22;28754;47.700;7.924;2024-02-04T14:53:30;8.70;99.90
42615;DHT22;28754;47.700;7.924;2024-02-04T14:56:17;8.40;99.90
42615;DHT22;28754;47.700;7.924;2024-02-04T14:59:04;8.50;99.90
42615;DHT22;28754;47.700;7.924;2024-02-04T15:01:52;8.40;99.90
42615;DHT22;28754;47.700;7.924;2024-02-04T15:04:39;8.20;99.90
42615;DHT22;28754;47.700;7.924;2024-02-04T15:07:26;8.20;99.90
42615;DHT22;28754;47.700;7.924;2024-02-04T15:10:12;8.00;99.90
42615;DHT22;28754;47.700;7.924;2024-02-04T15:12:59;8.00;99.90
42615;DHT22;28754;47.700;7.924;2024-02-04T15:15:47;8.40;99.90
42615;DHT22;28754;47.700;7.924;2024-02-04T15:18:34;9.00;99.90
42615;DHT22;28754;47.700;7.924;2024-02-04T15:21:21;8.80;99.90
42615;DHT22;28754;47.700;7.924;2024-02-04T15:24:11;8.70;99.90
42615;DHT22;28754;47.700;7.924;2024-02-04T15:26:59;8.50;99.90
42615;DHT22;28754;47.700;7.924;2024-02-04T15:29:51;8.70;99.90
42615;DHT22;28754;47.700;7.924;2024-02-04T15:32:39;8.10;99.90
42615;DHT22;28754;47.700;7.924;2024-02-04T15:35:26;7.80;99.90
42615;DHT22;28754;47.700;7.924;2024-02-04T15:38:13;7.50;99.90
42615;DHT22;28754;47.700;7.924;2024-02-04T15:40:59;7.50;99.90
42615;DHT22;28754;47.700;7.924;2024-02-04T15:43:47;7.20;99.90
42615;DHT22;28754;47.700;7.924;2024-02-04T15:46:35;7.10;99.90
42615;DHT22;28754;47.700;7.924;2024-02-04T15:49:24;7.00;99.90
42615;DHT22;28754;47.700;7.924;2024-02-04T15:52:14;6.90;99.90
42615;DHT22;28754;47.700;7.924;2024-02-04T15:55:01;6.70;99.90
42615;DHT22;28754;47.700;7.924;2024-02-04T15:57:50;6.50;99.90
42615;DHT22;28754;47.700;7.924;2024-02-04T16:00:40;6.40;99.90
42615;DHT22;28754;47.700;7.924;2024-02-04T16:03:27;6.30;99.90
42615;DHT22;28754;47.700;7.924;2024-02-04T16:06:14;6.20;99.90
42615;DHT22;28754;47.700;7.924;2024-02-04T16:09:02;6.10;99.90
42615;DHT22;28754;47.700;7.924;2024-02-04T16:11:58;6.00;99.90
42615;DHT22;28754;47.700;7.924;2024-02-04T16:14:51;6.00;99.90
42615;DHT22;28754;47.700;7.924;2024-02-04T16:17:38;6.00;99.90
42615;DHT22;28754;47.700;7.924;2024-02-04T16:20:25;6.00;99.90
42615;DHT22;28754;47.700;7.924;2024-02-04T16:23:12;6.10;99.90
42615;DHT22;28754;47.700;7.924;2024-02-04T16:25:59;6.10;99.90
42615;DHT22;28754;47.700;7.924;2024-02-04T16:28:46;6.00;99.90
42615;DHT22;28754;47.700;7.924;2024-02-04T16:31:33;5.90;99.90
42615;DHT22;28754;47.700;7.924;2024-02-04T16:34:20;5.90;99.90
42615;DHT22;28754;47.700;7.924;2024-02-04T16:37:06;5.90;99.90
42615;DHT22;28754;47.700;7.924;2024-02-04T16:39:55;5.90;99.90
42615;DHT22;28754;47.700;7.924;2024-02-04T16:42:42;6.00;99.90
42615;DHT22;28754;47.700;7.924;2024-02-04T16:45:28;5.90;99.90
42615;DHT22;28754;47.700;7.924;2024-02-04T16:48:16;5.80;99.90
42615;DHT22;28754;47.700;7.924;2024-02-04T16:51:03;5.80;99.90
42615;DHT22;28754;47.700;7.924;2024-02-04T16:53:50;5.90;99.90
42615;DHT22;28754;47.700;7.924;2024-02-04T16:56:38;5.80;99.90
42615;DHT22;28754;47.700;7.924;2024-02-04T16:59:25;5.80;99.90
42615;DHT22;28754;47.700;7.924;2024-02-04T17:02:12;5.80;99.90
42615;DHT22;28754;47.700;7.924;2024-02-04T17:04:59;5.80;99.90
42615;DHT22;28754;47.700;7.924;2024-02-04T17:07:46;5.90;99.90
42615;DHT22;28754;47.700;7.924;2024-02-04T17:10:33;5.80;99.90
42615;DHT22;28754;47.700;7.924;2024-02-04T17:13:21;5.80;99.90
42615;DHT22;28754;47.700;7.924;2024-02-04T17:16:29;5.70;99.90
42615;DHT22;28754;47.700;7.924;2024-02-04T17:19:34;5.60;99.90
42615;DHT22;28754;47.700;7.924;2024-02-04T17:22:34;5.50;99.90
42615;DHT22;28754;47.700;7.924;2024-02-04T17:25:25;5.40;99.90
42615;DHT22;28754;47.700;7.924;2024-02-04T17:28:17;5.30;99.90
42615;DHT22;28754;47.700;7.924;2024-02-04T17:31:04;5.40;99.90
42615;DHT22;28754;47.700;7.924;2024-02-04T17:33:51;5.40;99.90
42615;DHT22;28754;47.700;7.924;2024-02-04T17:36:38;5.40;99.90
42615;DHT22;28754;47.700;7.924;2024-02-04T17:39:26;5.20;99.90
42615;DHT22;28754;47.700;7.924;2024-02-04T17:42:14;5.20;99.90
42615;DHT22;28754;47.700;7.924;2024-02-04T17:45:00;5.10;99.90
42615;DHT22;28754;47.700;7.924;2024-02-04T17:47:52;5.00;99.90
42615;DHT22;28754;47.700;7.924;2024-02-04T17:50:39;5.00;99.90
42615;DHT22;28754;47.700;7.924;2024-02-04T17:53:25;5.00;99.90
42615;DHT22;28754;47.700;7.924;2024-02-04T17:56:16;5.00;99.90
42615;DHT22;28754;47.700;7.924;2024-02-04T17:59:07;4.90;99.90
42615;DHT22;28754;47.700;7.924;2024-02-04T18:01:54;4.80;99.90
42615;DHT22;28754;47.700;7.924;2024-02-04T18:04:44;4.80;99.90
42615;DHT22;28754;47.700;7.924;2024-02-04T18:07:32;4.80;99.90
42615;DHT22;28754;47.700;7.924;2024-02-04T18:10:19;4.70;99.90